Time;durP1;ratioP1;P1;durP2;ratioP2;P2;SDS_P1;SDS_P2;PMS_P1;PMS_P2;Temp;Humidity;BMP_temperature;BMP_pressure;BME280_temperature;BME280_humidity;BME280_pressure;Samples;Min_cycle;Max_cycle;Signal;HPM_P1;HPM_P2
2022/12/05 00:02:13;;;;;;;;;;;;;;;-12.61;76.32;102685.53;5105375;28;19932;-68
2022/12/05 00:04:40;;;;;;;;;;;;;;;-12.60;76.39;102678.50;5104047;28;19939;-68
2022/12/05 00:07:06;;;;;;;;;;;;;;;-12.66;76.51;102682.19;5108085;28;19935;-68
2022/12/05 00:09:31;;;;;;;;;;;;;;;-12.69;76.41;102680.53;5086156;28;20330;-68
2022/12/05 00:11:57;;;;;;;;;;;;;;;-12.94;76.51;102645.38;5086911;28;19932;-68
2022/12/05 00:14:23;;;;;;;;;;;;;;;-12.72;76.63;102675.34;5084746;28;20601;-68
2022/12/05 00:16:48;;;;;;;;;;;;;;;-12.71;76.58;102674.44;5084410;28;19932;-69
2022/12/05 00:19:14;;;;;;;;;;;;;;;-12.77;76.40;102674.66;5085243;28;19934;-68
2022/12/05 00:21:42;;;;;;;;;;;;;;;-12.82;76.63;102668.66;5076719;28;20019;-68
2022/12/05 00:24:10;;;;;;;;;;;;;;;-12.83;76.78;102669.59;5069601;28;19928;-68
2022/12/05 00:26:36;;;;;;;;;;;;;;;-12.86;76.82;102664.41;5066934;28;20347;-68
2022/12/05 00:29:01;;;;;;;;;;;;;;;-12.88;76.65;102674.16;5068279;28;19928;-68
2022/12/05 00:31:27;;;;;;;;;;;;;;;-12.91;77.20;102669.00;5083378;28;20328;-68
2022/12/05 00:33:53;;;;;;;;;;;;;;;-12.91;77.17;102671.63;5085018;28;19928;-68
2022/12/05 00:36:20;;;;;;;;;;;;;;;-12.92;77.30;102659.38;5085284;28;19970;-68
2022/12/05 00:38:48;;;;;;;;;;;;;;;-12.90;77.22;102666.28;5082904;28;20026;-67
2022/12/05 00:41:14;;;;;;;;;;;;;;;-12.94;76.93;102669.94;5085612;28;19951;-68
2022/12/05 00:43:40;;;;;;;;;;;;;;;-12.97;77.24;102664.78;5085427;28;20030;-68
2022/12/05 00:46:06;;;;;;;;;;;;;;;-13.02;77.31;102667.56;5086364;28;20566;-68
2022/12/05 00:48:32;;;;;;;;;;;;;;;-13.05;77.07;102659.75;5086047;28;19928;-68
2022/12/05 00:51:01;;;;;;;;;;;;;;;-13.04;77.35;102663.25;5083364;28;20287;-68
2022/12/05 00:53:27;;;;;;;;;;;;;;;-13.06;77.33;102652.78;5081397;28;19985;-68
2022/12/05 00:55:54;;;;;;;;;;;;;;;-13.06;77.36;102657.16;5083843;28;19928;-68
2022/12/05 00:58:20;;;;;;;;;;;;;;;-13.09;77.32;102657.28;5083552;28;19997;-68
2022/12/05 01:00:45;;;;;;;;;;;;;;;-13.12;77.69;102661.72;5085058;28;20395;-68
2022/12/05 01:03:11;;;;;;;;;;;;;;;-13.12;77.59;102651.19;5082237;28;19928;-68
2022/12/05 01:05:37;;;;;;;;;;;;;;;-13.12;77.52;102652.97;5083451;28;19935;-68
2022/12/05 01:08:03;;;;;;;;;;;;;;;-13.14;77.49;102654.78;5079068;28;19935;-69
2022/12/05 01:10:29;;;;;;;;;;;;;;;-13.16;77.47;102646.94;5074467;28;19928;-68
2022/12/05 01:12:56;;;;;;;;;;;;;;;-13.20;77.44;102640.03;5100708;28;19989;-68
2022/12/05 01:15:21;;;;;;;;;;;;;;;-13.23;77.36;102644.56;5105061;28;19928;-68
2022/12/05 01:17:47;;;;;;;;;;;;;;;-13.25;77.78;102640.22;5104663;28;20287;-68
2022/12/05 01:20:13;;;;;;;;;;;;;;;-13.25;77.79;102628.78;5087049;28;20026;-68
2022/12/05 01:22:38;;;;;;;;;;;;;;;-13.27;77.67;102634.13;5099483;28;19928;-68
2022/12/05 01:25:24;;;;;;;;;;;;;;;-13.25;77.84;102634.06;5104639;28;19927;-68
2022/12/05 01:27:50;;;;;;;;;;;;;;;-13.26;77.67;102629.72;5102963;28;19927;-68
2022/12/05 01:30:19;;;;;;;;;;;;;;;-13.25;77.92;102628.78;5103783;28;19929;-68
2022/12/05 01:32:44;;;;;;;;;;;;;;;-13.23;77.66;102616.44;5104362;28;20038;-68
2022/12/05 01:35:10;;;;;;;;;;;;;;;-13.26;77.56;102616.53;5101298;28;20038;-66
2022/12/05 01:37:36;;;;;;;;;;;;;;;-13.27;77.91;102610.44;5104300;28;19936;-64
2022/12/05 01:40:02;;;;;;;;;;;;;;;-13.27;78.14;102607.78;5103045;28;19973;-64
2022/12/05 01:42:28;;;;;;;;;;;;;;;-13.28;77.67;102603.41;5103371;28;19928;-64
2022/12/05 01:45:15;;;;;;;;;;;;;;;-13.28;77.82;102597.31;5101579;28;19935;-64
2022/12/05 01:47:43;;;;;;;;;;;;;;;-13.28;77.84;102598.16;5094719;28;20038;-64
2022/12/05 01:50:10;;;;;;;;;;;;;;;-13.28;77.62;102603.41;5105251;28;19928;-64
2022/12/05 01:52:37;;;;;;;;;;;;;;;-13.26;77.63;102601.63;5107309;28;19927;-65
2022/12/05 01:55:06;;;;;;;;;;;;;;;-13.27;77.45;102605.16;5102201;28;19928;-65
2022/12/05 01:57:32;;;;;;;;;;;;;;;-13.28;77.76;102602.56;5103140;28;19927;-64
2022/12/05 02:00:00;;;;;;;;;;;;;;;-13.26;77.83;102603.38;5106190;28;19932;-64
2022/12/05 02:02:26;;;;;;;;;;;;;;;-13.26;77.60;102596.34;5105009;28;19935;-64
2022/12/05 02:04:56;;;;;;;;;;;;;;;-13.27;77.75;102602.53;5103264;28;19931;-64
2022/12/05 02:07:22;;;;;;;;;;;;;;;-13.25;77.77;102595.44;5103488;28;20464;-64
2022/12/05 02:09:49;;;;;;;;;;;;;;;-13.24;77.39;102596.28;5101853;28;19959;-65
2022/12/05 02:12:15;;;;;;;;;;;;;;;-13.30;77.42;102601.75;5102921;28;19935;-68
2022/12/05 02:14:44;;;;;;;;;;;;;;;-13.32;77.60;102599.16;5104423;28;19931;-68
2022/12/05 02:17:13;;;;;;;;;;;;;;;-13.33;77.64;102602.72;5101682;28;19972;-68
2022/12/05 02:19:54;;;;;;;;;;;;;;;-13.30;77.61;102592.06;5102391;28;20009;-68
2022/12/05 02:22:34;;;;;;;;;;;;;;;-13.31;77.71;102590.34;5106092;28;19928;-68
2022/12/05 02:25:15;;;;;;;;;;;;;;;-13.29;77.62;102590.31;5047123;28;19928;-68
2022/12/05 02:28:01;;;;;;;;;;;;;;;-13.32;77.37;102582.53;5102171;28;20416;-68
2022/12/05 02:30:33;;;;;;;;;;;;;;;-13.32;77.83;102585.16;5061695;28;19936;-65
2022/12/05 02:33:05;;;;;;;;;;;;;;;-13.33;77.57;102586.91;5103125;28;19972;-64
2022/12/05 02:35:36;;;;;;;;;;;;;;;-13.36;77.49;102579.13;5103172;28;19936;-64
2022/12/05 02:38:10;;;;;;;;;;;;;;;-13.37;77.60;102580.03;5086044;28;19927;-64
2022/12/05 02:40:40;;;;;;;;;;;;;;;-13.43;77.67;102574.97;5083986;28;19935;-65
2022/12/05 02:43:10;;;;;;;;;;;;;;;-13.46;77.63;102565.44;5083316;28;19932;-66
2022/12/05 02:45:40;;;;;;;;;;;;;;;-13.48;77.46;102567.25;5083194;28;19946;-64
2022/12/05 02:48:06;;;;;;;;;;;;;;;-13.51;77.48;102564.69;5094482;28;19927;-64
2022/12/05 02:50:33;;;;;;;;;;;;;;;-13.54;77.65;102570.94;5104836;28;19950;-64
2022/12/05 02:53:02;;;;;;;;;;;;;;;-13.57;77.76;102568.41;5107997;28;20467;-64
2022/12/05 02:55:29;;;;;;;;;;;;;;;-13.59;77.81;102569.38;5093025;28;20026;-65
2022/12/05 02:57:56;;;;;;;;;;;;;;;-13.55;77.75;102557.81;5107483;28;20500;-65
2022/12/05 03:00:22;;;;;;;;;;;;;;;-13.58;77.67;102557.94;5107412;28;20333;-64
2022/12/05 03:02:53;;;;;;;;;;;;;;;-13.59;77.93;102558.84;5108336;28;19974;-68
2022/12/05 03:05:22;;;;;;;;;;;;;;;-13.55;77.76;102557.81;5106051;28;19938;-68
2022/12/05 03:07:50;;;;;;;;;;;;;;;-13.60;77.71;102557.13;5105611;28;19928;-68
2022/12/05 03:10:18;;;;;;;;;;;;;;;-13.57;77.97;102559.66;5101775;28;19971;-68
2022/12/05 03:12:46;;;;;;;;;;;;;;;-13.56;77.86;102549.06;5103609;28;19927;-68
2022/12/05 03:15:17;;;;;;;;;;;;;;;-13.58;77.56;102548.28;5105571;28;20526;-68
2022/12/05 03:17:46;;;;;;;;;;;;;;;-13.59;77.74;102550.94;5106440;28;20333;-68
2022/12/05 03:20:18;;;;;;;;;;;;;;;-13.60;77.51;102554.47;5107761;28;19934;-68
2022/12/05 03:22:47;;;;;;;;;;;;;;;-13.59;77.68;102550.94;5091428;28;19928;-68
2022/12/05 03:25:13;;;;;;;;;;;;;;;-13.61;77.49;102544.88;5100403;28;20517;-67
2022/12/05 03:27:45;;;;;;;;;;;;;;;-13.64;77.67;102547.59;5067917;28;20456;-68
2022/12/05 03:30:12;;;;;;;;;;;;;;;-13.68;77.58;102547.69;5085949;28;19955;-68
2022/12/05 03:32:40;;;;;;;;;;;;;;;-13.69;77.90;102545.97;5069853;28;19928;-68
2022/12/05 03:35:10;;;;;;;;;;;;;;;-13.70;77.94;102543.41;5087437;28;19928;-68
2022/12/05 03:37:44;;;;;;;;;;;;;;;-13.72;77.97;102539.97;5090115;28;19996;-68
2022/12/05 03:40:15;;;;;;;;;;;;;;;-13.71;77.94;102539.03;5106189;28;19934;-68
2022/12/05 03:42:45;;;;;;;;;;;;;;;-13.71;78.05;102537.25;5106842;28;19935;-67
2022/12/05 03:45:14;;;;;;;;;;;;;;;-13.71;77.91;102525.88;5105599;28;19927;-68
2022/12/05 03:47:43;;;;;;;;;;;;;;;-13.69;78.46;102526.69;5106816;28;20019;-68
2022/12/05 03:50:11;;;;;;;;;;;;;;;-13.68;78.06;102524.00;5103779;28;19927;-68
2022/12/05 03:52:41;;;;;;;;;;;;;;;-13.69;77.76;102517.00;5104337;28;20386;-67
2022/12/05 03:55:12;;;;;;;;;;;;;;;-13.72;77.75;102522.38;5106301;28;19988;-68
2022/12/05 03:57:44;;;;;;;;;;;;;;;-13.72;77.96;102516.28;5107266;28;20051;-68
2022/12/05 04:00:11;;;;;;;;;;;;;;;-13.92;77.85;102491.44;5104856;28;19964;-68
2022/12/05 04:02:48;;;;;;;;;;;;;;;-13.73;78.01;102522.44;5107499;28;19993;-68
2022/12/05 04:05:17;;;;;;;;;;;;;;;-13.70;77.87;102514.44;5107091;28;19927;-68
2022/12/05 04:07:44;;;;;;;;;;;;;;;-13.69;77.71;102516.16;5086876;28;19935;-68
2022/12/05 04:10:15;;;;;;;;;;;;;;;-13.70;77.73;102507.38;5104642;28;20237;-69
2022/12/05 04:12:42;;;;;;;;;;;;;;;-13.71;77.79;102510.09;5102887;28;20100;-68
2022/12/05 04:15:11;;;;;;;;;;;;;;;-13.76;77.60;102512.88;5073887;28;19928;-68
2022/12/05 04:17:39;;;;;;;;;;;;;;;-13.75;77.77;102514.59;5076238;28;19928;-68
2022/12/05 04:22:53;;;;;;;;;;;;;;;-13.75;77.78;102509.31;5087582;28;20025;-68
2022/12/05 04:25:31;;;;;;;;;;;;;;;-13.73;78.12;102511.91;5084930;28;19986;-68
2022/12/05 04:28:02;;;;;;;;;;;;;;;-13.72;77.86;102493.44;5084777;28;19932;-68
2022/12/05 04:30:30;;;;;;;;;;;;;;;-13.73;77.55;102493.50;5083843;28;19927;-69
2022/12/05 04:32:59;;;;;;;;;;;;;;;-13.75;77.66;102497.91;5086372;28;20003;-68
2022/12/05 04:35:26;;;;;;;;;;;;;;;-13.76;77.64;102488.31;5089042;28;19928;-68
2022/12/05 04:37:54;;;;;;;;;;;;;;;-13.79;77.80;102486.66;5086746;28;19974;-68
2022/12/05 04:40:23;;;;;;;;;;;;;;;-13.86;77.86;102486.00;5095594;28;19928;-68
2022/12/05 04:42:51;;;;;;;;;;;;;;;-13.92;77.96;102483.53;5100222;28;19931;-68
2022/12/05 04:45:18;;;;;;;;;;;;;;;-13.88;78.19;102473.78;5098784;28;19931;-68
2022/12/05 04:47:45;;;;;;;;;;;;;;;-14.00;77.96;102461.91;5093966;28;20322;-68
2022/12/05 04:50:13;;;;;;;;;;;;;;;-13.88;77.91;102479.06;5095871;28;20069;-68
2022/12/05 04:52:39;;;;;;;;;;;;;;;-13.91;77.68;102482.63;5100341;28;19935;-68
2022/12/05 04:55:07;;;;;;;;;;;;;;;-13.90;77.73;102475.63;5107190;28;19934;-68
2022/12/05 04:57:38;;;;;;;;;;;;;;;-13.89;78.00;102470.31;5098951;28;20467;-68
2022/12/05 05:00:05;;;;;;;;;;;;;;;-13.88;78.12;102476.41;5093430;28;19928;-68
2022/12/05 05:02:32;;;;;;;;;;;;;;;-13.87;78.01;102472.88;5086517;28;19935;-68
2022/12/05 05:05:00;;;;;;;;;;;;;;;-13.86;77.64;102470.22;5078345;28;19939;-67
2022/12/05 05:07:28;;;;;;;;;;;;;;;-13.87;77.53;102468.50;5077746;28;20282;-68
2022/12/05 05:09:54;;;;;;;;;;;;;;;-13.89;78.04;102465.06;5086607;28;20027;-68
2022/12/05 05:12:20;;;;;;;;;;;;;;;-13.89;77.82;102462.41;5084027;28;19928;-68
2022/12/05 05:14:47;;;;;;;;;;;;;;;-13.87;77.89;102467.63;5085090;28;19964;-66
2022/12/05 05:17:13;;;;;;;;;;;;;;;-13.89;78.08;102464.19;5086256;28;20424;-68
2022/12/05 05:19:39;;;;;;;;;;;;;;;-13.86;77.88;102458.81;5069701;28;19928;-68
2022/12/05 05:22:04;;;;;;;;;;;;;;;-13.86;77.95;102464.94;5070814;28;19959;-65
2022/12/05 05:24:30;;;;;;;;;;;;;;;-13.83;77.81;102469.22;5090336;28;19928;-65
2022/12/05 05:26:56;;;;;;;;;;;;;;;-13.83;77.63;102463.97;5089116;28;20327;-64
2022/12/05 05:29:22;;;;;;;;;;;;;;;-13.85;77.56;102469.28;5103843;28;19932;-64
2022/12/05 05:31:49;;;;;;;;;;;;;;;-13.84;77.49;102465.75;5097482;28;20449;-64
2022/12/05 05:34:15;;;;;;;;;;;;;;;-13.83;77.45;102469.22;5097992;28;19928;-64
2022/12/05 05:36:41;;;;;;;;;;;;;;;-13.79;77.50;102468.25;5070409;28;19950;-65
2022/12/05 05:39:11;;;;;;;;;;;;;;;-13.77;77.43;102463.78;5073323;28;19932;-64
2022/12/05 05:41:36;;;;;;;;;;;;;;;-13.77;77.43;102463.78;5057472;28;20453;-64
2022/12/05 05:44:03;;;;;;;;;;;;;;;-13.73;77.65;102464.53;5082298;28;19927;-64
2022/12/05 05:46:30;;;;;;;;;;;;;;;-13.69;77.60;102464.38;5087544;28;19935;-64
2022/12/05 05:48:57;;;;;;;;;;;;;;;-13.62;77.17;102459.75;5085163;28;19927;-64
2022/12/05 05:51:28;;;;;;;;;;;;;;;-13.60;76.89;102457.09;5102034;28;20390;-64
2022/12/05 05:53:53;;;;;;;;;;;;;;;-13.61;76.90;102458.00;5092500;28;19976;-68
2022/12/05 05:56:19;;;;;;;;;;;;;;;-13.57;77.11;102454.34;5087650;28;19928;-68
2022/12/05 05:58:46;;;;;;;;;;;;;;;-13.55;77.09;102448.13;5082689;28;20073;-68
2022/12/05 06:01:13;;;;;;;;;;;;;;;-13.47;76.76;102450.50;5080829;28;19928;-68
2022/12/05 06:03:38;;;;;;;;;;;;;;;-13.37;76.83;102444.84;5075453;28;20236;-66
2022/12/05 06:06:07;;;;;;;;;;;;;;;-13.29;76.47;102450.72;5071845;28;19928;-64
2022/12/05 06:08:33;;;;;;;;;;;;;;;-13.21;76.05;102437.28;5084091;28;20038;-64
2022/12/05 06:11:03;;;;;;;;;;;;;;;-13.15;75.74;102439.69;5084688;28;20026;-64
2022/12/05 06:13:29;;;;;;;;;;;;;;;-13.08;75.27;102435.94;5084884;28;19935;-64
2022/12/05 06:15:54;;;;;;;;;;;;;;;-13.04;74.96;102434.91;5083424;28;20355;-64
2022/12/05 06:18:21;;;;;;;;;;;;;;;-12.94;74.82;102448.59;5100487;28;19928;-64
2022/12/05 06:20:50;;;;;;;;;;;;;;;-12.88;74.26;102436.97;5086603;28;19935;-64
2022/12/05 06:23:17;;;;;;;;;;;;;;;-12.79;74.15;102446.31;5086046;28;20009;-64
2022/12/05 06:25:46;;;;;;;;;;;;;;;-12.74;73.50;102445.22;5102814;28;19959;-67
2022/12/05 06:28:11;;;;;;;;;;;;;;;-12.70;73.29;102441.53;5108813;28;19928;-68
2022/12/05 06:30:37;;;;;;;;;;;;;;;-12.62;73.13;102437.78;5095665;28;19928;-64
2022/12/05 06:33:03;;;;;;;;;;;;;;;-12.58;72.87;102442.84;5104651;28;20384;-64
2022/12/05 06:35:29;;;;;;;;;;;;;;;-12.55;72.46;102437.47;5094549;28;19950;-64
2022/12/05 06:37:54;;;;;;;;;;;;;;;-12.45;72.22;102435.34;5105267;28;19947;-64
2022/12/05 06:40:22;;;;;;;;;;;;;;;-12.40;72.05;102441.28;5110787;28;20039;-64
2022/12/05 06:42:47;;;;;;;;;;;;;;;-12.36;71.30;102436.75;5110283;28;19981;-64
2022/12/05 06:45:13;;;;;;;;;;;;;;;-12.18;71.85;102439.59;5109925;28;19936;-64
2022/12/05 06:47:39;;;;;;;;;;;;;;;-12.08;70.70;102433.03;5109784;28;19932;-64
2022/12/05 06:50:05;;;;;;;;;;;;;;;-11.98;70.62;102444.88;5109171;28;19935;-68
2022/12/05 06:52:31;;;;;;;;;;;;;;;-11.79;70.60;102445.91;5100533;28;19935;-68
2022/12/05 06:54:58;;;;;;;;;;;;;;;-11.84;69.75;102424.97;5086839;28;19932;-68
2022/12/05 06:57:28;;;;;;;;;;;;;;;-11.83;69.31;102424.91;5108785;27;19950;-64
2022/12/05 07:01:37;;;;;;;;;;;;;;;-11.77;69.29;102422.94;5101791;28;19928;-64
2022/12/05 07:02:42;;;;;;;;;;;;;;;-11.74;68.96;102423.69;5096090;28;19978;-64
2022/12/05 07:05:08;;;;;;;;;;;;;;;-11.76;68.80;102425.53;5085500;28;19935;-64
2022/12/05 07:07:34;;;;;;;;;;;;;;;-11.75;68.92;102421.09;5085808;28;20193;-68
2022/12/05 07:10:00;;;;;;;;;;;;;;;-11.75;68.65;102432.53;5086145;28;20318;-67
2022/12/05 07:12:25;;;;;;;;;;;;;;;-11.76;68.28;102424.66;5088842;28;19928;-64
2022/12/05 07:14:52;;;;;;;;;;;;;;;-11.72;68.31;102423.59;5089994;28;19928;-64
2022/12/05 07:17:19;;;;;;;;;;;;;;;-11.65;67.94;102416.28;5066300;28;19928;-64
2022/12/05 07:19:46;;;;;;;;;;;;;;;-11.61;68.15;102420.53;5067592;28;19928;-64
2022/12/05 07:22:11;;;;;;;;;;;;;;;-11.53;67.86;102415.75;5068305;28;19971;-64
2022/12/05 07:24:37;;;;;;;;;;;;;;;-11.47;67.83;102407.59;5065736;28;19967;-64
2022/12/05 07:27:03;;;;;;;;;;;;;;;-11.41;66.86;102419.63;5086537;28;20399;-64
2022/12/05 07:29:29;;;;;;;;;;;;;;;-11.46;67.10;102411.06;5099353;28;19928;-64
2022/12/05 07:31:56;;;;;;;;;;;;;;;-11.44;67.89;102409.22;5089261;28;20030;-64
2022/12/05 07:34:22;;;;;;;;;;;;;;;-11.44;67.11;102409.22;5085428;28;20022;-64
2022/12/05 07:36:47;;;;;;;;;;;;;;;-11.39;66.48;102412.53;5084536;28;20566;-64
2022/12/05 07:39:13;;;;;;;;;;;;;;;-11.37;66.51;102404.53;5076162;28;19935;-68
2022/12/05 07:41:39;;;;;;;;;;;;;;;-11.31;66.90;102399.00;5083922;28;20431;-68
2022/12/05 07:44:09;;;;;;;;;;;;;;;-11.23;66.73;102404.78;5091193;28;19928;-67
2022/12/05 07:46:35;;;;;;;;;;;;;;;-11.18;66.61;102413.34;5081269;28;19928;-68
2022/12/05 07:49:02;;;;;;;;;;;;;;;-11.30;66.24;102404.19;5067546;28;19928;-68
2022/12/05 07:51:28;;;;;;;;;;;;;;;-11.36;66.50;102393.03;5066192;28;19990;-68
2022/12/05 07:53:53;;;;;;;;;;;;;;;-11.40;66.86;102397.56;5074620;28;19955;-64
2022/12/05 07:56:20;;;;;;;;;;;;;;;-11.47;67.27;102389.09;5087103;28;19928;-66
2022/12/05 07:58:46;;;;;;;;;;;;;;;-11.50;67.41;102398.94;5084374;28;19928;-64
2022/12/05 08:01:14;;;;;;;;;;;;;;;-11.51;67.59;102390.13;5086651;28;19986;-65
2022/12/05 08:03:40;;;;;;;;;;;;;;;-11.49;67.56;102382.16;5085525;28;19939;-64
2022/12/05 08:06:08;;;;;;;;;;;;;;;-11.36;67.76;102375.41;5089843;28;19927;-64
2022/12/05 08:08:34;;;;;;;;;;;;;;;-11.29;67.30;102376.00;5065381;28;20447;-64
2022/12/05 08:11:02;;;;;;;;;;;;;;;-11.29;67.35;102362.78;5090575;28;20032;-64
2022/12/05 08:13:28;;;;;;;;;;;;;;;-11.25;67.38;102378.41;5069473;28;19928;-68
2022/12/05 08:15:53;;;;;;;;;;;;;;;-11.23;66.75;102375.72;5085604;28;19928;-68
2022/12/05 08:18:19;;;;;;;;;;;;;;;-11.22;66.89;102369.50;5095517;28;20031;-68
2022/12/05 08:20:45;;;;;;;;;;;;;;;-11.23;66.99;102362.50;5089219;28;19928;-68
2022/12/05 08:23:12;;;;;;;;;;;;;;;-11.18;67.14;102367.56;5102408;28;19963;-68
2022/12/05 08:25:38;;;;;;;;;;;;;;;-11.18;67.32;102360.50;5088910;28;20456;-68
2022/12/05 08:28:03;;;;;;;;;;;;;;;-11.14;66.92;102361.22;5089968;28;19936;-68
2022/12/05 08:30:29;;;;;;;;;;;;;;;-11.11;67.32;102353.16;5090075;28;19931;-68
2022/12/05 08:32:55;;;;;;;;;;;;;;;-11.03;67.08;102352.78;5105407;28;19927;-65
2022/12/05 08:35:21;;;;;;;;;;;;;;;-10.92;66.91;102349.69;5095535;28;19932;-64
2022/12/05 08:37:46;;;;;;;;;;;;;;;-10.85;66.45;102340.50;5086258;28;20027;-64
2022/12/05 08:40:14;;;;;;;;;;;;;;;-10.59;66.56;102333.13;5093712;28;20030;-69
2022/12/05 08:42:39;;;;;;;;;;;;;;;-9.73;64.19;102340.31;5101971;28;19928;-68
2022/12/05 08:45:05;;;;;;;;;;;;;;;-9.52;62.23;102330.38;5097287;28;20364;-68
2022/12/05 08:47:31;;;;;;;;;;;;;;;-9.26;62.81;102330.81;5106558;28;20582;-68
2022/12/05 08:49:57;;;;;;;;;;;;;;;-8.08;60.25;102326.00;5106276;28;19931;-68
2022/12/05 08:52:22;;;;;;;;;;;;;;;-7.64;58.41;102322.50;5103795;28;19957;-68
2022/12/05 08:54:48;;;;;;;;;;;;;;;-7.17;56.76;102331.13;5084863;28;20455;-68
2022/12/05 08:57:15;;;;;;;;;;;;;;;-7.05;54.52;102323.34;5085396;28;19928;-68
2022/12/05 08:59:41;;;;;;;;;;;;;;;-7.59;54.84;102331.03;5085421;28;20005;-68
2022/12/05 09:02:07;;;;;;;;;;;;;;;-7.79;55.89;102323.41;5084447;28;19944;-68
2022/12/05 09:04:33;;;;;;;;;;;;;;;-7.52;55.85;102317.34;5085310;28;19967;-68
2022/12/05 09:07:00;;;;;;;;;;;;;;;-6.57;54.63;102322.94;5091117;28;19970;-65
2022/12/05 09:09:26;;;;;;;;;;;;;;;-5.79;52.72;102313.31;5097439;28;19935;-65
2022/12/05 09:11:52;;;;;;;;;;;;;;;-4.83;51.09;102311.06;5095285;28;20031;-69
2022/12/05 09:14:19;;;;;;;;;;;;;;;-4.30;48.41;102312.56;5103166;28;20040;-69
2022/12/05 09:16:45;;;;;;;;;;;;;;;-4.15;48.88;102298.03;5089363;28;20018;-69
2022/12/05 09:19:12;;;;;;;;;;;;;;;-3.92;47.77;102298.09;5085222;28;20394;-69
2022/12/05 09:21:38;;;;;;;;;;;;;;;-3.58;46.32;102300.00;5084560;28;20019;-69
2022/12/05 09:24:04;;;;;;;;;;;;;;;-3.69;46.40;102290.13;5086106;28;20545;-69
2022/12/05 09:26:29;;;;;;;;;;;;;;;-3.65;46.26;102291.59;5067645;28;20066;-69
2022/12/05 09:28:55;;;;;;;;;;;;;;;-3.43;45.94;102284.56;5089623;28;20066;-69
2022/12/05 09:31:29;;;;;;;;;;;;;;;-3.10;46.33;102280.19;5084473;28;20256;-69
2022/12/05 09:33:55;;;;;;;;;;;;;;;-2.91;43.65;102282.19;5085559;28;19982;-69
2022/12/05 09:36:22;;;;;;;;;;;;;;;-3.40;44.72;102284.31;5102524;28;19935;-69
2022/12/05 09:38:47;;;;;;;;;;;;;;;-3.79;45.74;102276.63;5086038;28;19988;-69
2022/12/05 09:42:03;;;;;;;;;;;;;;;-4.38;46.42;102272.19;5084930;28;20410;-69
2022/12/05 09:44:11;;;;;;;;;;;;;;;-5.34;48.43;102280.84;5104102;28;19928;-69
2022/12/05 09:46:42;;;;;;;;;;;;;;;-5.88;49.99;102274.81;5093731;28;19962;-68
2022/12/05 09:49:10;;;;;;;;;;;;;;;-6.40;50.81;102268.56;5105238;28;19927;-68
2022/12/05 09:51:39;;;;;;;;;;;;;;;-6.51;51.27;102247.13;5105076;28;19963;-69
2022/12/05 09:54:05;;;;;;;;;;;;;;;-6.54;51.28;102266.84;5103898;28;20303;-67
2022/12/05 09:56:33;;;;;;;;;;;;;;;-6.13;51.50;102257.88;5101852;28;20417;-69
2022/12/05 09:59:01;;;;;;;;;;;;;;;-5.56;50.27;102255.72;5095362;28;20361;-68
2022/12/05 10:01:32;;;;;;;;;;;;;;;-5.59;49.50;102265.75;5093896;28;19938;-69
2022/12/05 10:04:06;;;;;;;;;;;;;;;-5.88;49.92;102250.81;5098502;28;19932;-68
2022/12/05 10:06:34;;;;;;;;;;;;;;;-5.96;50.52;102250.50;5094983;28;19934;-68
2022/12/05 10:09:07;;;;;;;;;;;;;;;-5.81;50.54;102247.72;5104974;28;19928;-68
2022/12/05 10:11:35;;;;;;;;;;;;;;;-5.70;50.31;102234.50;5087819;28;20352;-68
2022/12/05 10:14:07;;;;;;;;;;;;;;;-5.67;49.93;102241.44;5091941;28;19981;-69
2022/12/05 10:16:35;;;;;;;;;;;;;;;-5.86;50.10;102232.91;5090628;28;19935;-65
2022/12/05 10:19:06;;;;;;;;;;;;;;;-5.90;50.16;102233.22;5099955;28;19928;-65
2022/12/05 10:21:35;;;;;;;;;;;;;;;-5.90;50.12;102226.09;5100943;28;19980;-66
2022/12/05 10:24:02;;;;;;;;;;;;;;;-6.16;50.70;102226.09;5080624;28;20279;-65
2022/12/05 10:26:29;;;;;;;;;;;;;;;-6.03;50.75;102217.28;5105193;28;19928;-65
2022/12/05 10:28:58;;;;;;;;;;;;;;;-5.92;50.90;102216.50;5089908;28;19928;-68
2022/12/05 10:31:26;;;;;;;;;;;;;;;-5.99;50.45;102213.41;5090688;28;20400;-68
2022/12/05 10:33:56;;;;;;;;;;;;;;;-6.40;51.52;102210.00;5063883;28;19955;-68
2022/12/05 10:36:24;;;;;;;;;;;;;;;-6.65;51.83;102219.63;5085558;28;20303;-68
2022/12/05 10:38:49;;;;;;;;;;;;;;;-6.91;52.33;102208.91;5088944;28;19932;-68
2022/12/05 10:41:16;;;;;;;;;;;;;;;-7.14;53.00;102219.22;5087370;28;19928;-68
2022/12/05 10:43:43;;;;;;;;;;;;;;;-7.19;53.35;102225.78;5088164;28;20553;-69
2022/12/05 10:46:09;;;;;;;;;;;;;;;-7.46;54.06;102223.94;5073261;28;19985;-68
2022/12/05 10:48:36;;;;;;;;;;;;;;;-7.72;54.56;102223.78;5087015;28;19934;-68
2022/12/05 10:51:02;;;;;;;;;;;;;;;-8.05;55.35;102214.28;5094215;28;20314;-65
2022/12/05 10:53:35;;;;;;;;;;;;;;;-8.11;55.82;102218.16;5094955;28;19928;-65
2022/12/05 10:56:01;;;;;;;;;;;;;;;-7.99;56.14;102216.53;5080384;28;20309;-65
2022/12/05 10:58:27;;;;;;;;;;;;;;;-7.88;55.60;102219.41;5084700;28;20039;-64
2022/12/05 11:00:55;;;;;;;;;;;;;;;-7.85;55.30;102219.22;5079179;28;20484;-68
2022/12/05 11:03:23;;;;;;;;;;;;;;;-7.93;55.72;102218.84;5072983;28;19936;-68
2022/12/05 11:05:49;;;;;;;;;;;;;;;-7.97;55.83;102225.25;5080038;28;20021;-68
2022/12/05 11:08:20;;;;;;;;;;;;;;;-8.01;56.16;102218.44;5057312;28;19928;-68
2022/12/05 11:10:48;;;;;;;;;;;;;;;-8.02;55.81;102208.75;5065479;28;19946;-68
2022/12/05 11:13:15;;;;;;;;;;;;;;;-7.93;55.92;102208.22;5079332;28;19928;-68
2022/12/05 11:15:43;;;;;;;;;;;;;;;-7.93;55.62;102199.38;5072254;28;19982;-68
2022/12/05 11:18:17;;;;;;;;;;;;;;;-7.98;55.93;102204.97;5089673;28;20302;-68
2022/12/05 11:20:42;;;;;;;;;;;;;;;-7.98;55.80;102194.34;5094001;28;19927;-68
2022/12/05 11:23:16;;;;;;;;;;;;;;;-8.09;56.16;102204.78;5087193;28;20014;-68
2022/12/05 11:25:42;;;;;;;;;;;;;;;-8.12;56.64;102189.88;5088082;28;20026;-68
2022/12/05 11:28:22;;;;;;;;;;;;;;;-8.22;56.38;102180.75;5103803;28;20018;-68
2022/12/05 11:30:55;;;;;;;;;;;;;;;-8.22;56.72;102194.91;5107796;28;19954;-68
2022/12/05 11:33:22;;;;;;;;;;;;;;;-8.23;56.53;102192.34;5096674;28;19944;-68
2022/12/05 11:35:49;;;;;;;;;;;;;;;-8.19;56.84;102185.91;5094796;28;19959;-68
2022/12/05 11:38:15;;;;;;;;;;;;;;;-8.30;56.60;102189.19;5097244;28;19973;-68
2022/12/05 11:40:46;;;;;;;;;;;;;;;-8.43;56.56;102184.66;5095683;28;19943;-68
2022/12/05 11:43:26;;;;;;;;;;;;;;;-8.52;57.33;102185.22;5102325;28;19927;-68
2022/12/05 11:45:59;;;;;;;;;;;;;;;-8.61;57.63;102177.78;5100816;28;19928;-68
2022/12/05 11:48:29;;;;;;;;;;;;;;;-8.65;57.63;102184.22;5099759;28;20421;-65
2022/12/05 11:51:04;;;;;;;;;;;;;;;-8.71;57.79;102172.16;5103342;28;19966;-68
2022/12/05 11:53:39;;;;;;;;;;;;;;;-8.88;57.81;102168.69;5103496;28;20414;-68
2022/12/05 11:56:10;;;;;;;;;;;;;;;-9.00;58.69;102172.94;5100143;28;20389;-68
2022/12/05 11:58:47;;;;;;;;;;;;;;;-9.00;58.81;102172.06;5069930;28;19940;-68
2022/12/05 12:01:22;;;;;;;;;;;;;;;-8.96;58.67;102165.66;5068534;28;20013;-68
2022/12/05 12:03:59;;;;;;;;;;;;;;;-8.97;58.96;102158.66;5069716;28;19929;-65
2022/12/05 12:06:28;;;;;;;;;;;;;;;-8.88;58.67;102160.75;5066722;28;19928;-65
2022/12/05 12:09:07;;;;;;;;;;;;;;;-8.83;58.39;102165.78;5088235;28;20404;-64
2022/12/05 12:11:36;;;;;;;;;;;;;;;-8.87;58.53;102151.84;5100970;28;19951;-64
2022/12/05 12:14:07;;;;;;;;;;;;;;;-9.00;58.52;102146.41;5089209;28;19928;-68
2022/12/05 12:16:38;;;;;;;;;;;;;;;-9.08;58.92;102151.28;5095407;28;19989;-68
2022/12/05 12:19:20;;;;;;;;;;;;;;;-9.24;59.48;102143.38;5098352;28;19927;-68
2022/12/05 12:21:59;;;;;;;;;;;;;;;-9.34;59.69;102135.09;5096869;28;19935;-69
2022/12/05 12:24:29;;;;;;;;;;;;;;;-9.37;60.12;102139.72;5100258;28;19928;-68
2022/12/05 12:26:58;;;;;;;;;;;;;;;-9.44;59.86;102126.81;5088481;28;19938;-68
2022/12/05 12:29:30;;;;;;;;;;;;;;;-9.44;60.15;102123.28;5096903;28;21095;-68
2022/12/05 12:32:03;;;;;;;;;;;;;;;-9.45;60.93;102124.25;5068857;28;20039;-69
2022/12/05 12:34:48;;;;;;;;;;;;;;;-9.54;60.78;102126.44;5064964;28;19982;-68
2022/12/05 12:37:22;;;;;;;;;;;;;;;-9.55;61.05;102121.25;5065811;28;20035;-68
2022/12/05 12:39:50;;;;;;;;;;;;;;;-9.57;61.15;102123.16;5073122;28;20058;-68